Terminal Aerodrome Forecast
Issued by NWS

Home | Current Version | Previous Version | Text Only | Print | Product List | Glossary On
Versions: 1 2 3 4 5 6 7 8 9 10 11 12
824
FTUS43 KICT 230540
TAFHUT
TAF
KHUT 230540Z 2306/2406 07009KT P6SM BKN250
     FM231100 08013KT P6SM OVC120
     FM231800 10009KT P6SM SCT130
     FM232000 15013KT P6SM SKC=

USA.gov is the U.S. government's official web portal to all federal, state and local government web resources and services.